createdAt,value
2016-06-29T00:00:18.313Z,1060
2016-06-29T00:00:48.320Z,1060
2016-06-29T00:01:18.334Z,1060
2016-06-29T00:01:48.359Z,1060
2016-06-29T00:02:18.376Z,1060
2016-06-29T00:02:48.386Z,1060
2016-06-29T00:03:18.437Z,1060
2016-06-29T00:03:48.407Z,1060
2016-06-29T00:04:18.426Z,1060
2016-06-29T00:04:48.443Z,1050
2016-06-29T00:05:18.452Z,1050
2016-06-29T00:05:48.477Z,1050
2016-06-29T00:06:18.487Z,1050
2016-06-29T00:06:48.499Z,1055
2016-06-29T00:07:18.532Z,1064
2016-06-29T00:07:48.529Z,1064
2016-06-29T00:08:18.557Z,1064
2016-06-29T00:08:48.568Z,1064
2016-06-29T00:09:18.578Z,1064
2016-06-29T00:09:48.588Z,1064
2016-06-29T00:10:18.630Z,1064
2016-06-29T00:10:48.638Z,1064
2016-06-29T00:11:18.635Z,1064
2016-06-29T00:11:48.656Z,1064
2016-06-29T00:12:18.666Z,1064
2016-06-29T00:12:48.678Z,1064
2016-06-29T00:13:18.704Z,1064
2016-06-29T00:13:48.724Z,1064
2016-06-29T00:14:18.727Z,1064
2016-06-29T00:14:48.741Z,1064
2016-06-29T00:15:18.766Z,1064
2016-06-29T00:15:48.784Z,1064
2016-06-29T00:16:18.813Z,1064
2016-06-29T00:16:48.800Z,1064
2016-06-29T00:17:18.828Z,1064
2016-06-29T00:17:48.844Z,1068
2016-06-29T00:18:18.847Z,1064
2016-06-29T00:18:48.875Z,1064
2016-06-29T00:19:18.901Z,1064
2016-06-29T00:19:49.028Z,1064
2016-06-29T00:20:18.909Z,1064
2016-06-29T00:20:48.927Z,1064
2016-06-29T00:21:18.933Z,1064
2016-06-29T00:21:48.962Z,1068
2016-06-29T00:22:18.970Z,1068
2016-06-29T00:22:48.987Z,1068
2016-06-29T00:23:19.013Z,1068
2016-06-29T00:23:49.026Z,1068
2016-06-29T00:24:19.029Z,1068
2016-06-29T00:24:49.042Z,1072
2016-06-29T00:25:19.071Z,1072
2016-06-29T00:25:49.090Z,1077
2016-06-29T00:26:19.097Z,1077
2016-06-29T00:26:49.105Z,1077
2016-06-29T00:27:19.125Z,1077
2016-06-29T00:27:49.152Z,1082
2016-06-29T00:28:19.155Z,1082
2016-06-29T00:28:49.178Z,1082
2016-06-29T00:29:19.183Z,1076
2016-06-29T00:29:49.204Z,1076
2016-06-29T00:30:19.211Z,1076
2016-06-29T00:30:49.224Z,1076
2016-06-29T00:31:19.248Z,1076
2016-06-29T00:31:49.270Z,1076
2016-06-29T00:32:18.678Z,1076
2016-06-29T00:32:49.294Z,1076
2016-06-29T00:33:19.322Z,1076
2016-06-29T00:33:49.328Z,1076
2016-06-29T00:34:19.341Z,1076
2016-06-29T00:34:49.354Z,1076
2016-06-29T00:35:19.361Z,1076
2016-06-29T00:35:49.390Z,1076
2016-06-29T00:36:19.405Z,1076
2016-06-29T00:36:49.414Z,1076
2016-06-29T00:37:19.427Z,1076
2016-06-29T00:37:49.446Z,1076
2016-06-29T00:38:19.461Z,1076
2016-06-29T00:38:49.496Z,1086
2016-06-29T00:39:19.487Z,1086
2016-06-29T00:39:49.523Z,1086
2016-06-29T00:40:19.521Z,1086
2016-06-29T00:40:49.546Z,1086
2016-06-29T00:41:19.545Z,1086
2016-06-29T00:41:49.565Z,1086
2016-06-29T00:42:19.593Z,1086
2016-06-29T00:42:49.622Z,1091
2016-06-29T00:43:19.622Z,1096
2016-06-29T00:43:49.629Z,1081
2016-06-29T00:44:19.655Z,1087
2016-06-29T00:44:49.650Z,1087
2016-06-29T00:45:19.079Z,1087
2016-06-29T00:45:49.688Z,1087
2016-06-29T00:46:19.699Z,1087
2016-06-29T00:46:49.710Z,1087
2016-06-29T00:47:19.721Z,1091
2016-06-29T00:47:49.745Z,1091
2016-06-29T00:48:19.176Z,1091
2016-06-29T00:48:49.800Z,1091
2016-06-29T00:49:19.818Z,1091
2016-06-29T00:49:49.810Z,1091
2016-06-29T00:50:19.834Z,1091
2016-06-29T00:50:49.841Z,1091
2016-06-29T00:51:19.857Z,1091
2016-06-29T00:51:49.885Z,1091
2016-06-29T00:52:19.890Z,1091
2016-06-29T00:52:49.896Z,1091
2016-06-29T00:53:19.915Z,1091
2016-06-29T00:53:49.930Z,1091
2016-06-29T00:54:19.949Z,1091
2016-06-29T00:54:49.964Z,1091
2016-06-29T00:55:19.977Z,1096
2016-06-29T00:55:49.986Z,1096
2016-06-29T00:56:20.004Z,1096
2016-06-29T00:56:50.012Z,1096
2016-06-29T00:57:20.045Z,1096
2016-06-29T00:57:50.062Z,1096
2016-06-29T00:58:20.074Z,1096
2016-06-29T00:58:50.074Z,1096
2016-06-29T00:59:20.093Z,1096
2016-06-29T00:59:50.110Z,1096
2016-06-29T01:00:20.146Z,1096
2016-06-29T01:00:50.152Z,1096
2016-06-29T01:01:20.163Z,1096
2016-06-29T01:01:50.187Z,1096
2016-06-29T01:02:20.194Z,1096
2016-06-29T01:02:50.204Z,1096
2016-06-29T01:03:20.218Z,1096
2016-06-29T01:03:50.234Z,1096
2016-06-29T01:04:20.250Z,1096
2016-06-29T01:04:50.257Z,1096
2016-06-29T01:05:20.283Z,1096
2016-06-29T01:05:50.315Z,1096
2016-06-29T01:06:20.305Z,1096
2016-06-29T01:06:50.350Z,1096
2016-06-29T01:07:20.345Z,1096
2016-06-29T01:07:50.366Z,1096
2016-06-29T01:08:20.379Z,1096
2016-06-29T01:08:50.406Z,1096
2016-06-29T01:09:20.410Z,1096
2016-06-29T01:09:49.825Z,1100
2016-06-29T01:10:20.434Z,1100
2016-06-29T01:10:50.467Z,1100
2016-06-29T01:11:20.492Z,1100
2016-06-29T01:11:50.477Z,1100
2016-06-29T01:12:20.522Z,1105
2016-06-29T01:12:50.525Z,1105
2016-06-29T01:13:20.529Z,1100
2016-06-29T01:13:50.552Z,1100
2016-06-29T01:14:20.557Z,1100
2016-06-29T01:14:50.601Z,1100
2016-06-29T01:15:20.604Z,1100
2016-06-29T01:15:50.603Z,1105
2016-06-29T01:16:20.630Z,1105
2016-06-29T01:16:50.641Z,1105
2016-06-29T01:17:20.638Z,1105
2016-06-29T01:17:50.663Z,1105
2016-06-29T01:18:20.688Z,1105
2016-06-29T01:18:50.686Z,1105
2016-06-29T01:19:20.716Z,1105
2016-06-29T01:19:50.724Z,1105
2016-06-29T01:20:20.739Z,1105
2016-06-29T01:20:50.777Z,1105
2016-06-29T01:21:20.780Z,1105
2016-06-29T01:21:50.799Z,1105
2016-06-29T01:22:20.846Z,1110
2016-06-29T01:22:50.818Z,1110
2016-06-29T01:23:20.848Z,1110
2016-06-29T01:23:50.847Z,1110
2016-06-29T01:24:20.878Z,1110
2016-06-29T01:24:50.899Z,1110
2016-06-29T01:25:20.907Z,1110
2016-06-29T01:25:50.906Z,1110
2016-06-29T01:26:20.918Z,1105
2016-06-29T01:26:50.946Z,1105
2016-06-29T01:27:20.941Z,1114
2016-06-29T01:27:50.967Z,1114
2016-06-29T01:28:20.979Z,1114
2016-06-29T01:28:51.000Z,1114
2016-06-29T01:29:21.011Z,1119
2016-06-29T01:29:51.025Z,1119
2016-06-29T01:30:21.057Z,1119
2016-06-29T01:30:51.062Z,1119
2016-06-29T01:31:21.070Z,1119
2016-06-29T01:31:51.085Z,1119
2016-06-29T01:32:21.117Z,1119
2016-06-29T01:32:51.109Z,1119
2016-06-29T01:33:21.131Z,1119
2016-06-29T01:33:51.140Z,1119
2016-06-29T01:34:21.165Z,1114
2016-06-29T01:34:51.183Z,1114
2016-06-29T01:35:21.181Z,1114
2016-06-29T01:35:51.228Z,1119
2016-06-29T01:36:21.248Z,1119
2016-06-29T01:36:51.234Z,1123
2016-06-29T01:37:21.251Z,1123
2016-06-29T01:37:51.280Z,1123
2016-06-29T01:38:21.278Z,1123
2016-06-29T01:38:51.298Z,1123
2016-06-29T01:39:21.311Z,1123
2016-06-29T01:39:51.323Z,1123
2016-06-29T01:40:21.343Z,1118
2016-06-29T01:40:51.367Z,1118
2016-06-29T01:41:21.383Z,1118
2016-06-29T01:41:51.399Z,1118
2016-06-29T01:42:21.652Z,1118
2016-06-29T01:42:51.430Z,1118
2016-06-29T01:43:21.442Z,1123
2016-06-29T01:43:51.447Z,1123
2016-06-29T01:44:21.466Z,1128
2016-06-29T01:44:51.490Z,1128
2016-06-29T01:45:21.496Z,1128
2016-06-29T01:45:51.500Z,1122
2016-06-29T01:46:21.518Z,1122
2016-06-29T01:46:51.536Z,1122
2016-06-29T01:47:21.553Z,1122
2016-06-29T01:47:51.566Z,1122
2016-06-29T01:48:21.583Z,1122
2016-06-29T01:48:51.609Z,1122
2016-06-29T01:49:21.617Z,1122
2016-06-29T01:49:51.616Z,1122
2016-06-29T01:50:21.654Z,1122
2016-06-29T01:50:51.658Z,1122
2016-06-29T01:51:21.675Z,1122
2016-06-29T01:51:51.685Z,1122
2016-06-29T01:52:21.717Z,1118
2016-06-29T01:52:51.735Z,1118
2016-06-29T01:53:21.813Z,1118
2016-06-29T01:53:51.759Z,1118
2016-06-29T01:54:21.764Z,1118
2016-06-29T01:54:51.779Z,1118
2016-06-29T01:55:21.795Z,1118
2016-06-29T01:55:51.813Z,1118
2016-06-29T01:56:21.824Z,1118
2016-06-29T01:56:51.841Z,1118
2016-06-29T01:57:21.866Z,1113
2016-06-29T01:57:51.877Z,1104
2016-06-29T01:58:21.884Z,1104
2016-06-29T01:58:51.913Z,1104
2016-06-29T01:59:21.909Z,1109
2016-06-29T01:59:51.931Z,1109
2016-06-29T02:00:21.941Z,1109
2016-06-29T02:00:51.961Z,1109
2016-06-29T02:01:21.978Z,1104
2016-06-29T02:01:51.994Z,1104
2016-06-29T02:02:22.005Z,1104
2016-06-29T02:02:52.022Z,1104
2016-06-29T02:03:22.047Z,1104
2016-06-29T02:03:52.058Z,1109
2016-06-29T02:04:22.066Z,1114
2016-06-29T02:04:52.081Z,1114
2016-06-29T02:05:22.095Z,1114
2016-06-29T02:05:52.137Z,1114
2016-06-29T02:06:22.121Z,1114
2016-06-29T02:06:52.142Z,1114
2016-06-29T02:07:22.174Z,1114
2016-06-29T02:07:52.176Z,1114
2016-06-29T02:08:22.182Z,1114
2016-06-29T02:08:52.197Z,1114
2016-06-29T02:09:22.244Z,1108
2016-06-29T02:09:52.243Z,1119
2016-06-29T02:10:22.245Z,1119
2016-06-29T02:10:52.262Z,1119
2016-06-29T02:11:22.276Z,1119
2016-06-29T02:11:52.289Z,1119
2016-06-29T02:12:22.305Z,1104
2016-06-29T02:12:52.330Z,1115
2016-06-29T02:13:22.335Z,1115
2016-06-29T02:13:52.357Z,1115
2016-06-29T02:14:22.362Z,1115
2016-06-29T02:14:52.382Z,1115
2016-06-29T02:15:21.798Z,1115
2016-06-29T02:15:52.411Z,1115
2016-06-29T02:16:22.423Z,1115
2016-06-29T02:16:52.438Z,1115
2016-06-29T02:17:22.452Z,1115
2016-06-29T02:17:52.479Z,1115
2016-06-29T02:18:22.480Z,1115
2016-06-29T02:18:52.513Z,1115
2016-06-29T02:19:22.518Z,1115
2016-06-29T02:19:52.545Z,1115
2016-06-29T02:20:22.550Z,1115
2016-06-29T02:20:52.582Z,1115
2016-06-29T02:21:22.585Z,1115
2016-06-29T02:21:52.597Z,1115
2016-06-29T02:22:22.602Z,1120
2016-06-29T02:22:52.620Z,1120
2016-06-29T02:23:22.034Z,1120
2016-06-29T02:23:52.650Z,1120
2016-06-29T02:24:22.669Z,1125
2016-06-29T02:24:52.689Z,1130
2016-06-29T02:25:22.691Z,1130
2016-06-29T02:25:52.715Z,1130
2016-06-29T02:26:22.147Z,1130
2016-06-29T02:26:52.746Z,1130
2016-06-29T02:27:22.763Z,1130
2016-06-29T02:27:52.773Z,1130
2016-06-29T02:28:22.797Z,1130
2016-06-29T02:28:52.797Z,1115
2016-06-29T02:29:22.828Z,1130
2016-06-29T02:29:52.837Z,1130
2016-06-29T02:30:22.869Z,1130
2016-06-29T02:30:52.869Z,1125
2016-06-29T02:31:22.885Z,1125
2016-06-29T02:31:52.903Z,1125
2016-06-29T02:32:22.926Z,1125
2016-06-29T02:32:52.928Z,1125
2016-06-29T02:33:23.002Z,1125
2016-06-29T02:33:52.961Z,1125
2016-06-29T02:34:22.977Z,1125
2016-06-29T02:34:53.002Z,1125
2016-06-29T02:35:23.015Z,1125
2016-06-29T02:35:53.006Z,1125
2016-06-29T02:36:23.031Z,1125
2016-06-29T02:36:53.074Z,1125
2016-06-29T02:37:23.054Z,1125
2016-06-29T02:37:53.081Z,1125
2016-06-29T02:38:23.127Z,1125
2016-06-29T02:38:53.106Z,1125
2016-06-29T02:39:23.122Z,1130
2016-06-29T02:39:53.144Z,1130
2016-06-29T02:40:23.156Z,1130
2016-06-29T02:40:53.169Z,1130
2016-06-29T02:41:23.170Z,1130
2016-06-29T02:41:53.198Z,1124
2016-06-29T02:42:23.206Z,1124
2016-06-29T02:42:53.228Z,1124
2016-06-29T02:43:23.243Z,1124
2016-06-29T02:43:53.252Z,1124
2016-06-29T02:44:22.666Z,1124
2016-06-29T02:44:53.291Z,1124
2016-06-29T02:45:23.300Z,1124
2016-06-29T02:45:53.317Z,1124
2016-06-29T02:46:23.334Z,1124
2016-06-29T02:46:53.344Z,1124
2016-06-29T02:47:23.361Z,1124
2016-06-29T02:47:53.377Z,1124
2016-06-29T02:48:23.389Z,1124
2016-06-29T02:48:53.414Z,1124
2016-06-29T02:49:23.418Z,1124
2016-06-29T02:49:53.439Z,1124
2016-06-29T02:50:23.463Z,1124
2016-06-29T02:50:53.466Z,1124
2016-06-29T02:51:23.500Z,1124
2016-06-29T02:51:53.505Z,1124
2016-06-29T02:52:23.510Z,1130
2016-06-29T02:52:53.525Z,1130
2016-06-29T02:53:23.538Z,1130
2016-06-29T02:53:53.553Z,1130
2016-06-29T02:54:23.573Z,1130
2016-06-29T02:54:53.583Z,1130
2016-06-29T02:55:23.609Z,1130
2016-06-29T02:55:53.627Z,1130
2016-06-29T02:56:23.627Z,1130
2016-06-29T02:56:53.648Z,1130
2016-06-29T02:57:23.655Z,1130
2016-06-29T02:57:53.673Z,1130
2016-06-29T02:58:23.684Z,1130
2016-06-29T02:58:53.705Z,1130
2016-06-29T02:59:23.738Z,1134
2016-06-29T02:59:53.744Z,1134
2016-06-29T03:00:23.770Z,1134
2016-06-29T03:00:53.774Z,1134
2016-06-29T03:01:23.782Z,1134
2016-06-29T03:01:53.799Z,1134
2016-06-29T03:02:23.819Z,1134
2016-06-29T03:02:53.827Z,1134
2016-06-29T03:03:23.848Z,1134
2016-06-29T03:03:53.855Z,1130
2016-06-29T03:04:23.867Z,1130
2016-06-29T03:04:53.889Z,1130
2016-06-29T03:05:23.909Z,1130
2016-06-29T03:05:53.920Z,1130
2016-06-29T03:06:23.935Z,1135
2016-06-29T03:06:53.949Z,1135
2016-06-29T03:07:23.968Z,1144
2016-06-29T03:07:53.983Z,1144
2016-06-29T03:08:23.990Z,1144
2016-06-29T03:08:54.008Z,1139
2016-06-29T03:09:24.025Z,1139
2016-06-29T03:09:54.035Z,1139
2016-06-29T03:10:24.051Z,1139
2016-06-29T03:10:54.070Z,1145
2016-06-29T03:11:24.078Z,1145
2016-06-29T03:11:54.098Z,1145
2016-06-29T03:12:24.112Z,1139
2016-06-29T03:12:54.129Z,1139
2016-06-29T03:13:24.148Z,1139
2016-06-29T03:13:54.163Z,1139
2016-06-29T03:14:24.191Z,1139
2016-06-29T03:14:54.187Z,1139
2016-06-29T03:15:24.213Z,1139
2016-06-29T03:15:54.218Z,1139
2016-06-29T03:16:24.237Z,1139
2016-06-29T03:16:54.251Z,1139
2016-06-29T03:17:24.272Z,1139
2016-06-29T03:17:54.283Z,1139
2016-06-29T03:18:24.289Z,1139
2016-06-29T03:18:54.311Z,1144
2016-06-29T03:19:24.329Z,1149
2016-06-29T03:19:54.340Z,1149
2016-06-29T03:20:23.750Z,1149
2016-06-29T03:20:54.376Z,1149
2016-06-29T03:21:24.385Z,1149
2016-06-29T03:21:54.436Z,1149
2016-06-29T03:22:24.413Z,1149
2016-06-29T03:22:54.442Z,1143
2016-06-29T03:23:24.441Z,1143
2016-06-29T03:23:54.462Z,1143
2016-06-29T03:24:24.494Z,1147
2016-06-29T03:24:54.499Z,1147
2016-06-29T03:25:24.513Z,1147
2016-06-29T03:25:54.523Z,1147
2016-06-29T03:26:24.528Z,1147
2016-06-29T03:26:54.554Z,896
2016-06-29T03:27:24.566Z,896
2016-06-29T03:27:54.585Z,896
2016-06-29T03:28:24.600Z,896
2016-06-29T03:28:54.610Z,902
2016-06-29T03:29:24.620Z,902
2016-06-29T03:29:54.636Z,1146
2016-06-29T03:30:24.660Z,1146
2016-06-29T03:30:54.659Z,1146
2016-06-29T03:31:24.675Z,900
2016-06-29T03:31:54.704Z,900
2016-06-29T03:32:24.734Z,1146
2016-06-29T03:32:54.731Z,1151
2016-06-29T03:33:24.747Z,1151
2016-06-29T03:33:54.759Z,1151
2016-06-29T03:34:24.783Z,1151
2016-06-29T03:34:54.796Z,1151
2016-06-29T03:35:24.838Z,1151
2016-06-29T03:35:54.817Z,1151
2016-06-29T03:36:24.826Z,1151
2016-06-29T03:36:54.848Z,1151
2016-06-29T03:37:24.855Z,1151
2016-06-29T03:37:54.880Z,1151
2016-06-29T03:38:24.888Z,1151
2016-06-29T03:38:54.909Z,1151
2016-06-29T03:39:24.915Z,900
2016-06-29T03:39:54.398Z,905
2016-06-29T03:40:24.969Z,905
2016-06-29T03:40:54.977Z,905
2016-06-29T03:41:24.374Z,905
2016-06-29T03:41:55.003Z,905
2016-06-29T03:42:25.024Z,905
2016-06-29T03:42:55.041Z,905
2016-06-29T03:43:25.040Z,905
2016-06-29T03:43:55.057Z,905
2016-06-29T03:44:25.065Z,900
2016-06-29T03:44:55.086Z,900
2016-06-29T03:45:25.103Z,905
2016-06-29T03:45:55.126Z,905
2016-06-29T03:46:25.138Z,914
2016-06-29T03:46:55.154Z,914
2016-06-29T03:47:25.168Z,914
2016-06-29T03:47:55.177Z,914
2016-06-29T03:48:25.202Z,903
2016-06-29T03:48:55.217Z,903
2016-06-29T03:49:25.221Z,903
2016-06-29T03:49:55.248Z,898
2016-06-29T03:50:25.251Z,898
2016-06-29T03:50:55.270Z,898
2016-06-29T03:51:25.292Z,898
2016-06-29T03:51:55.301Z,898
2016-06-29T03:52:25.309Z,898
2016-06-29T03:52:55.335Z,898
2016-06-29T03:53:25.348Z,898
2016-06-29T03:53:55.374Z,898
2016-06-29T03:54:25.375Z,898
2016-06-29T03:54:55.389Z,898
2016-06-29T03:55:25.402Z,1145
2016-06-29T03:55:55.419Z,900
2016-06-29T03:56:25.426Z,900
2016-06-29T03:56:55.439Z,1151
2016-06-29T03:57:25.467Z,1151
2016-06-29T03:57:55.485Z,1151
2016-06-29T03:58:25.484Z,1151
2016-06-29T03:58:55.499Z,1151
2016-06-29T03:59:25.527Z,1151
2016-06-29T03:59:55.549Z,1151
2016-06-29T04:00:25.563Z,1151
2016-06-29T04:00:55.566Z,1151
2016-06-29T04:01:25.579Z,1146
2016-06-29T04:01:55.584Z,1146
2016-06-29T04:02:25.607Z,1146
2016-06-29T04:02:55.631Z,1146
2016-06-29T04:03:25.631Z,1151
2016-06-29T04:03:55.655Z,1151
2016-06-29T04:04:25.671Z,1151
2016-06-29T04:04:55.682Z,1151
2016-06-29T04:05:25.708Z,1151
2016-06-29T04:05:55.729Z,1151
2016-06-29T04:06:25.737Z,1151
2016-06-29T04:06:55.751Z,1149
2016-06-29T04:07:25.753Z,1149
2016-06-29T04:07:55.783Z,1149
2016-06-29T04:08:25.798Z,1149
2016-06-29T04:08:55.826Z,1149
2016-06-29T04:09:25.820Z,1145
2016-06-29T04:09:55.830Z,1145
2016-06-29T04:10:25.872Z,1150
2016-06-29T04:10:55.861Z,1150
2016-06-29T04:11:25.890Z,1150
2016-06-29T04:11:55.901Z,1150
2016-06-29T04:12:25.907Z,898
2016-06-29T04:12:55.920Z,898
2016-06-29T04:13:25.938Z,1149
2016-06-29T04:13:55.950Z,1149
2016-06-29T04:14:25.987Z,1149
2016-06-29T04:14:55.984Z,1149
2016-06-29T04:15:26.035Z,1149
2016-06-29T04:15:56.016Z,1149
2016-06-29T04:16:26.033Z,1149
2016-06-29T04:16:56.055Z,1149
2016-06-29T04:17:26.050Z,1149
2016-06-29T04:17:56.077Z,1149
2016-06-29T04:18:26.088Z,1149
2016-06-29T04:18:56.113Z,1149
2016-06-29T04:19:26.110Z,1149
2016-06-29T04:19:56.139Z,1149
2016-06-29T04:20:26.174Z,1149
2016-06-29T04:20:56.169Z,1149
2016-06-29T04:21:26.170Z,1149
2016-06-29T04:21:56.198Z,1149
2016-06-29T04:22:26.206Z,1149
2016-06-29T04:22:56.226Z,1149
2016-06-29T04:23:26.233Z,1149
2016-06-29T04:23:56.263Z,1143
2016-06-29T04:24:26.278Z,897
2016-06-29T04:24:56.289Z,897
2016-06-29T04:25:26.313Z,897
2016-06-29T04:25:56.327Z,897
2016-06-29T04:26:26.325Z,897
2016-06-29T04:26:56.381Z,897
2016-06-29T04:27:26.370Z,897
2016-06-29T04:27:56.399Z,902
2016-06-29T04:28:26.410Z,897
2016-06-29T04:28:56.416Z,897
2016-06-29T04:29:26.419Z,897
2016-06-29T04:29:56.423Z,897
2016-06-29T04:30:26.447Z,897
2016-06-29T04:30:56.475Z,1148
2016-06-29T04:31:26.476Z,1148
2016-06-29T04:31:56.483Z,1148
2016-06-29T04:32:26.503Z,1148
2016-06-29T04:32:56.524Z,1148
2016-06-29T04:33:26.538Z,1148
2016-06-29T04:33:55.958Z,1148
2016-06-29T04:34:26.570Z,897
2016-06-29T04:34:56.591Z,897
2016-06-29T04:35:26.598Z,902
2016-06-29T04:35:56.611Z,902
2016-06-29T04:36:26.627Z,902
2016-06-29T04:36:56.646Z,902
2016-06-29T04:37:26.660Z,902
2016-06-29T04:37:56.685Z,902
2016-06-29T04:38:26.710Z,1148
2016-06-29T04:38:56.703Z,1148
2016-06-29T04:39:26.713Z,1148
2016-06-29T04:39:56.738Z,1148
2016-06-29T04:40:26.746Z,1148
2016-06-29T04:40:56.759Z,1148
2016-06-29T04:41:26.780Z,1148
2016-06-29T04:41:56.789Z,1148
2016-06-29T04:42:26.818Z,1148
2016-06-29T04:42:56.834Z,1148
2016-06-29T04:43:26.853Z,1148
2016-06-29T04:43:56.859Z,1148
2016-06-29T04:44:26.874Z,1148
2016-06-29T04:44:56.882Z,1148
2016-06-29T04:45:26.900Z,1148
2016-06-29T04:45:56.911Z,1148
2016-06-29T04:46:26.925Z,1148
2016-06-29T04:46:56.938Z,1148
2016-06-29T04:47:26.970Z,1148
2016-06-29T04:47:56.974Z,1148
2016-06-29T04:48:26.987Z,1148
2016-06-29T04:48:56.996Z,1148
2016-06-29T04:49:27.024Z,1148
2016-06-29T04:49:57.026Z,1148
2016-06-29T04:50:27.040Z,1148
2016-06-29T04:50:57.056Z,1148
2016-06-29T04:51:27.079Z,1148
2016-06-29T04:51:57.101Z,1148
2016-06-29T04:52:27.105Z,1143
2016-06-29T04:52:57.130Z,1143
2016-06-29T04:53:27.139Z,1143
2016-06-29T04:53:57.146Z,1143
2016-06-29T04:54:27.162Z,1133
2016-06-29T04:54:57.174Z,1133
2016-06-29T04:55:27.187Z,1143
2016-06-29T04:55:57.206Z,1148
2016-06-29T04:56:27.258Z,1148
2016-06-29T04:56:57.242Z,1148
2016-06-29T04:57:27.262Z,1148
2016-06-29T04:57:57.273Z,1138
2016-06-29T04:58:27.285Z,1138
2016-06-29T04:58:57.295Z,1138
2016-06-29T04:59:27.313Z,1138
2016-06-29T04:59:57.323Z,1138
2016-06-29T05:00:27.348Z,1138
2016-06-29T05:00:57.362Z,1143
2016-06-29T05:01:27.363Z,1143
2016-06-29T05:01:57.398Z,1138
2016-06-29T05:02:27.405Z,1133
2016-06-29T05:02:57.430Z,1133
2016-06-29T05:03:27.471Z,1133
2016-06-29T05:03:57.453Z,1128
2016-06-29T05:04:27.469Z,1128
2016-06-29T05:04:57.482Z,1128
2016-06-29T05:05:27.509Z,1128
2016-06-29T05:05:57.506Z,1128
2016-06-29T05:06:27.521Z,1123
2016-06-29T05:06:57.539Z,1119
2016-06-29T05:07:27.555Z,1119
2016-06-29T05:07:57.579Z,1119
2016-06-29T05:08:27.592Z,1119
2016-06-29T05:08:57.597Z,1110
2016-06-29T05:09:27.609Z,1105
2016-06-29T05:09:57.631Z,1105
2016-06-29T05:10:27.670Z,1105
2016-06-29T05:10:57.674Z,1105
2016-06-29T05:11:27.677Z,1105
2016-06-29T05:11:57.081Z,1105
2016-06-29T05:12:27.695Z,1105
2016-06-29T05:12:57.735Z,1100
2016-06-29T05:13:27.739Z,1100
2016-06-29T05:13:57.752Z,1100
2016-06-29T05:14:27.765Z,1100
2016-06-29T05:14:57.788Z,1100
2016-06-29T05:15:27.806Z,1100
2016-06-29T05:15:57.816Z,1100
2016-06-29T05:16:27.826Z,1100
2016-06-29T05:16:57.835Z,1095
2016-06-29T05:17:27.850Z,1095
2016-06-29T05:17:57.874Z,1095
2016-06-29T05:18:27.891Z,1095
2016-06-29T05:18:57.909Z,1091
2016-06-29T05:19:27.916Z,1091
2016-06-29T05:19:57.944Z,1091
2016-06-29T05:20:27.958Z,1095
2016-06-29T05:20:57.955Z,1095
2016-06-29T05:21:27.990Z,1095
2016-06-29T05:21:58.014Z,1095
2016-06-29T05:22:28.015Z,1095
2016-06-29T05:22:58.048Z,1095
2016-06-29T05:23:28.028Z,1086
2016-06-29T05:23:58.080Z,1086
2016-06-29T05:24:28.067Z,1086
2016-06-29T05:24:58.087Z,1086
2016-06-29T05:25:28.105Z,1081
2016-06-29T05:25:58.114Z,1081
2016-06-29T05:26:28.133Z,1077
2016-06-29T05:26:57.550Z,1068
2016-06-29T05:27:28.181Z,1076
2016-06-29T05:27:58.187Z,1076
2016-06-29T05:28:28.208Z,1076
2016-06-29T05:28:58.235Z,1081
2016-06-29T05:29:28.226Z,1081
2016-06-29T05:29:58.248Z,1076
2016-06-29T05:30:28.257Z,1076
2016-06-29T05:30:58.285Z,1076
2016-06-29T05:31:28.286Z,1076
2016-06-29T05:31:58.305Z,1076
2016-06-29T05:32:28.318Z,1076
2016-06-29T05:32:58.335Z,1076
2016-06-29T05:33:28.341Z,1076
2016-06-29T05:33:58.379Z,1076
2016-06-29T05:34:28.382Z,1076
2016-06-29T05:34:58.394Z,1076
2016-06-29T05:35:28.420Z,1081
2016-06-29T05:35:58.429Z,1081
2016-06-29T05:36:28.436Z,1081
2016-06-29T05:36:58.459Z,1081
2016-06-29T05:37:28.467Z,1081
2016-06-29T05:37:58.488Z,1081
2016-06-29T05:38:28.493Z,1081
2016-06-29T05:38:58.534Z,1081
2016-06-29T05:39:28.531Z,1081
2016-06-29T05:39:58.568Z,1081
2016-06-29T05:40:28.562Z,1081
2016-06-29T05:40:58.580Z,1081
2016-06-29T05:41:28.585Z,1085
2016-06-29T05:41:58.612Z,1085
2016-06-29T05:42:28.624Z,1085
2016-06-29T05:42:58.639Z,1085
2016-06-29T05:43:28.654Z,1085
2016-06-29T05:43:58.664Z,1081
2016-06-29T05:44:28.686Z,1076
2016-06-29T05:44:58.744Z,1076
2016-06-29T05:45:28.725Z,1076
2016-06-29T05:45:58.726Z,1076
2016-06-29T05:46:28.135Z,1059
2016-06-29T05:46:58.765Z,1054
2016-06-29T05:47:28.783Z,1054
2016-06-29T05:47:58.790Z,1054
2016-06-29T05:48:28.821Z,1054
2016-06-29T05:48:58.832Z,1054
2016-06-29T05:49:28.828Z,1054
2016-06-29T05:49:58.846Z,1055
2016-06-29T05:50:28.877Z,1060
2016-06-29T05:50:58.886Z,1060
2016-06-29T05:51:28.905Z,1060
2016-06-29T05:51:58.930Z,1061
2016-06-29T05:52:28.928Z,1061
2016-06-29T05:52:58.947Z,1061
2016-06-29T05:53:28.963Z,1061
2016-06-29T05:53:58.973Z,1061
2016-06-29T05:54:28.979Z,1061
2016-06-29T05:54:59.008Z,1065
2016-06-29T05:55:29.020Z,1065
2016-06-29T05:55:59.044Z,1065
2016-06-29T05:56:29.061Z,1065
2016-06-29T05:56:59.064Z,1065
2016-06-29T05:57:29.078Z,1075
2016-06-29T05:57:59.113Z,1075
2016-06-29T05:58:29.114Z,1075
2016-06-29T05:58:59.153Z,1075
2016-06-29T05:59:29.185Z,1075
2016-06-29T05:59:59.167Z,1075
2016-06-29T06:00:29.191Z,1084
2016-06-29T06:00:59.188Z,1085
2016-06-29T06:01:29.212Z,1080
2016-06-29T06:01:59.235Z,1080
2016-06-29T06:02:29.232Z,1080
2016-06-29T06:02:59.263Z,1080
2016-06-29T06:03:29.271Z,1080
2016-06-29T06:03:59.286Z,1080
2016-06-29T06:04:28.702Z,1080
2016-06-29T06:04:59.326Z,1075
2016-06-29T06:05:29.329Z,1075
2016-06-29T06:05:59.342Z,1075
2016-06-29T06:06:29.377Z,1075
2016-06-29T06:06:59.372Z,1075
2016-06-29T06:07:29.415Z,1065
2016-06-29T06:07:59.420Z,1061
2016-06-29T06:08:29.419Z,1056
2016-06-29T06:08:59.446Z,1056
2016-06-29T06:09:29.452Z,1056
2016-06-29T06:09:59.477Z,1042
2016-06-29T06:10:29.481Z,1042
2016-06-29T06:10:59.501Z,1038
2016-06-29T06:11:29.522Z,1038
2016-06-29T06:11:59.533Z,1042
2016-06-29T06:12:29.540Z,1042
2016-06-29T06:12:59.557Z,1042
2016-06-29T06:13:29.585Z,1047
2016-06-29T06:13:59.598Z,1047
2016-06-29T06:14:29.607Z,1047
2016-06-29T06:14:59.619Z,1047
2016-06-29T06:15:29.642Z,1047
2016-06-29T06:15:59.666Z,1047
2016-06-29T06:16:29.663Z,1047
2016-06-29T06:16:59.690Z,1047
2016-06-29T06:17:29.702Z,1047
2016-06-29T06:17:59.718Z,1051
2016-06-29T06:18:29.738Z,1051
2016-06-29T06:18:59.755Z,1047
2016-06-29T06:19:29.766Z,1047
2016-06-29T06:19:59.781Z,1037
2016-06-29T06:20:29.814Z,1037
2016-06-29T06:20:59.807Z,1046
2016-06-29T06:21:29.827Z,1046
2016-06-29T06:22:02.270Z,1061
2016-06-29T06:22:32.255Z,1056
2016-06-29T06:23:02.288Z,1056
2016-06-29T06:23:32.377Z,1056
2016-06-29T06:24:02.434Z,1056
2016-06-29T06:24:32.513Z,1056
2016-06-29T06:25:02.391Z,1056
2016-06-29T06:25:29.951Z,1056
2016-06-29T06:25:59.991Z,1056
2016-06-29T06:26:32.828Z,1056
2016-06-29T06:27:02.620Z,1051
2016-06-29T06:27:32.658Z,1051
2016-06-29T06:28:02.438Z,1051
2016-06-29T06:28:32.535Z,1051
2016-06-29T06:29:00.058Z,1051
2016-06-29T06:29:31.713Z,1051
2016-06-29T06:30:02.654Z,1051
2016-06-29T06:30:32.327Z,1051
2016-06-29T06:31:02.806Z,1051
2016-06-29T06:31:32.475Z,1066
2016-06-29T06:32:02.513Z,1061
2016-06-29T06:32:32.540Z,1057
2016-06-29T06:33:01.886Z,1063
2016-06-29T06:33:32.716Z,1063
2016-06-29T06:34:00.210Z,1063
2016-06-29T06:34:30.234Z,1063
2016-06-29T06:35:00.235Z,1063
2016-06-29T06:35:30.281Z,1058
2016-06-29T06:36:00.306Z,1058
2016-06-29T06:36:30.291Z,1058
2016-06-29T06:37:00.305Z,1063
2016-06-29T06:37:30.319Z,1063
2016-06-29T06:38:00.342Z,1063
2016-06-29T06:38:30.356Z,1072
2016-06-29T06:39:00.377Z,1072
2016-06-29T06:39:30.381Z,1072
2016-06-29T06:40:00.411Z,1063
2016-06-29T06:40:30.421Z,1063